Searles, Minnesota
Current Conditions -  °F | °C
As of 10:14 AM on Monday 22 Dec 2014 (Local Time) from KULM Reporting Station
Light Rain Light Rain  
Wind Chill: 29°   Ceiling: 500
Heat Index: 37°   Visibility: 2.5mi
Dew Point: 37°   Wind: 14mph
Humidity: 100%   Direction: 140°SE
Pressure: 29.57"   Gusts: 22mph
Location:  44.23°N, 94.44°W
Report Text: KULM 221614Z AUTO 14012G19KT 2 1/2SM -RA OVC005 03/03 A2957 RMK AO2
Loading
Personal Weather Stations






























Interactive Weather Map New forecast layout! Learn more

10-Day Weather Forecast

Advertisements
Track Severe Weather on mobile